sensor_id;sensor_type;location;lat;lon;timestamp;P1;durP1;ratioP1;P2;durP2;ratioP2
42018;SDS011;27703;51.980;5.848;2023-07-20T00:01:53;2.30;;;0.60;;
42018;SDS011;27703;51.980;5.848;2023-07-20T00:04:19;3.33;;;0.80;;
42018;SDS011;27703;51.980;5.848;2023-07-20T00:06:44;1.73;;;0.88;;
42018;SDS011;27703;51.980;5.848;2023-07-20T00:09:10;1.10;;;0.50;;
42018;SDS011;27703;51.980;5.848;2023-07-20T00:11:36;2.83;;;0.77;;
42018;SDS011;27703;51.980;5.848;2023-07-20T00:14:03;2.75;;;0.73;;
42018;SDS011;27703;51.980;5.848;2023-07-20T00:16:29;2.97;;;1.10;;
42018;SDS011;27703;51.980;5.848;2023-07-20T00:18:55;3.75;;;0.80;;
42018;SDS011;27703;51.980;5.848;2023-07-20T00:21:20;1.25;;;0.70;;
42018;SDS011;27703;51.980;5.848;2023-07-20T00:23:46;2.53;;;0.90;;
42018;SDS011;27703;51.980;5.848;2023-07-20T00:26:12;1.63;;;0.70;;
42018;SDS011;27703;51.980;5.848;2023-07-20T00:28:37;2.60;;;1.10;;
42018;SDS011;27703;51.980;5.848;2023-07-20T00:31:04;1.10;;;0.70;;
42018;SDS011;27703;51.980;5.848;2023-07-20T00:33:30;1.30;;;0.68;;
42018;SDS011;27703;51.980;5.848;2023-07-20T00:35:55;3.05;;;1.02;;
42018;SDS011;27703;51.980;5.848;2023-07-20T00:38:21;2.60;;;1.33;;
42018;SDS011;27703;51.980;5.848;2023-07-20T00:40:46;2.42;;;1.00;;
42018;SDS011;27703;51.980;5.848;2023-07-20T00:43:13;2.10;;;1.02;;
42018;SDS011;27703;51.980;5.848;2023-07-20T00:45:39;1.88;;;0.90;;
42018;SDS011;27703;51.980;5.848;2023-07-20T00:48:05;3.03;;;1.13;;
42018;SDS011;27703;51.980;5.848;2023-07-20T00:50:32;1.88;;;0.80;;
42018;SDS011;27703;51.980;5.848;2023-07-20T00:52:59;1.55;;;0.77;;
42018;SDS011;27703;51.980;5.848;2023-07-20T00:55:25;1.08;;;0.60;;
42018;SDS011;27703;51.980;5.848;2023-07-20T00:57:52;2.83;;;1.15;;
42018;SDS011;27703;51.980;5.848;2023-07-20T01:00:17;1.90;;;0.68;;
42018;SDS011;27703;51.980;5.848;2023-07-20T01:02:44;1.70;;;0.95;;
42018;SDS011;27703;51.980;5.848;2023-07-20T01:05:10;2.47;;;0.80;;
42018;SDS011;27703;51.980;5.848;2023-07-20T01:13:04;2.45;;;0.90;;
42018;SDS011;27703;51.980;5.848;2023-07-20T01:15:33;1.92;;;1.00;;
42018;SDS011;27703;51.980;5.848;2023-07-20T01:17:59;2.42;;;0.93;;
42018;SDS011;27703;51.980;5.848;2023-07-20T01:20:26;1.73;;;0.82;;
42018;SDS011;27703;51.980;5.848;2023-07-20T01:28:03;1.60;;;0.65;;
42018;SDS011;27703;51.980;5.848;2023-07-20T01:30:59;2.28;;;0.70;;
42018;SDS011;27703;51.980;5.848;2023-07-20T01:33:40;1.20;;;0.60;;
42018;SDS011;27703;51.980;5.848;2023-07-20T01:36:09;1.30;;;0.77;;
42018;SDS011;27703;51.980;5.848;2023-07-20T01:38:36;2.90;;;0.80;;
42018;SDS011;27703;51.980;5.848;2023-07-20T01:41:02;2.40;;;0.73;;
42018;SDS011;27703;51.980;5.848;2023-07-20T01:43:28;1.50;;;0.80;;
42018;SDS011;27703;51.980;5.848;2023-07-20T01:45:54;1.50;;;0.82;;
42018;SDS011;27703;51.980;5.848;2023-07-20T01:48:19;2.13;;;0.90;;
42018;SDS011;27703;51.980;5.848;2023-07-20T01:50:45;2.63;;;0.70;;
42018;SDS011;27703;51.980;5.848;2023-07-20T01:53:11;0.93;;;0.60;;
42018;SDS011;27703;51.980;5.848;2023-07-20T01:55:36;1.20;;;0.60;;
42018;SDS011;27703;51.980;5.848;2023-07-20T01:58:02;1.85;;;0.55;;
42018;SDS011;27703;51.980;5.848;2023-07-20T02:00:28;1.92;;;0.80;;
42018;SDS011;27703;51.980;5.848;2023-07-20T02:02:54;1.13;;;0.50;;
42018;SDS011;27703;51.980;5.848;2023-07-20T02:05:19;1.98;;;0.70;;
42018;SDS011;27703;51.980;5.848;2023-07-20T02:07:45;3.25;;;0.63;;
42018;SDS011;27703;51.980;5.848;2023-07-20T02:10:11;1.10;;;0.50;;
42018;SDS011;27703;51.980;5.848;2023-07-20T02:12:37;2.03;;;0.57;;
42018;SDS011;27703;51.980;5.848;2023-07-20T02:15:02;3.10;;;0.50;;
42018;SDS011;27703;51.980;5.848;2023-07-20T02:17:28;1.17;;;0.50;;
42018;SDS011;27703;51.980;5.848;2023-07-20T02:19:55;0.90;;;0.47;;
42018;SDS011;27703;51.980;5.848;2023-07-20T02:22:22;0.90;;;0.50;;
42018;SDS011;27703;51.980;5.848;2023-07-20T02:24:48;1.38;;;0.65;;
42018;SDS011;27703;51.980;5.848;2023-07-20T02:27:14;1.42;;;0.55;;
42018;SDS011;27703;51.980;5.848;2023-07-20T02:29:40;1.55;;;0.45;;
42018;SDS011;27703;51.980;5.848;2023-07-20T02:32:07;1.20;;;0.60;;
42018;SDS011;27703;51.980;5.848;2023-07-20T02:34:33;1.33;;;0.40;;
42018;SDS011;27703;51.980;5.848;2023-07-20T02:36:59;1.63;;;0.47;;
42018;SDS011;27703;51.980;5.848;2023-07-20T02:39:26;1.67;;;0.40;;
42018;SDS011;27703;51.980;5.848;2023-07-20T02:41:53;0.98;;;0.40;;
42018;SDS011;27703;51.980;5.848;2023-07-20T02:44:18;1.45;;;0.43;;
42018;SDS011;27703;51.980;5.848;2023-07-20T02:46:44;1.33;;;0.40;;
42018;SDS011;27703;51.980;5.848;2023-07-20T02:49:10;0.80;;;0.40;;
42018;SDS011;27703;51.980;5.848;2023-07-20T02:51:35;0.60;;;0.30;;
42018;SDS011;27703;51.980;5.848;2023-07-20T02:54:01;0.70;;;0.30;;
42018;SDS011;27703;51.980;5.848;2023-07-20T02:56:27;1.52;;;0.45;;
42018;SDS011;27703;51.980;5.848;2023-07-20T02:58:52;1.60;;;0.50;;
42018;SDS011;27703;51.980;5.848;2023-07-20T03:01:18;1.80;;;1.25;;
42018;SDS011;27703;51.980;5.848;2023-07-20T03:03:43;1.13;;;0.40;;
42018;SDS011;27703;51.980;5.848;2023-07-20T03:06:15;0.95;;;0.43;;
42018;SDS011;27703;51.980;5.848;2023-07-20T03:08:42;2.25;;;0.50;;
42018;SDS011;27703;51.980;5.848;2023-07-20T03:11:14;1.13;;;0.45;;
42018;SDS011;27703;51.980;5.848;2023-07-20T03:13:41;1.45;;;0.47;;
42018;SDS011;27703;51.980;5.848;2023-07-20T03:16:08;0.68;;;0.38;;
42018;SDS011;27703;51.980;5.848;2023-07-20T03:18:39;1.30;;;0.50;;
42018;SDS011;27703;51.980;5.848;2023-07-20T03:21:05;0.90;;;0.50;;
42018;SDS011;27703;51.980;5.848;2023-07-20T03:23:32;1.13;;;0.50;;
42018;SDS011;27703;51.980;5.848;2023-07-20T03:25:58;1.63;;;0.40;;
42018;SDS011;27703;51.980;5.848;2023-07-20T03:28:23;1.15;;;0.40;;
42018;SDS011;27703;51.980;5.848;2023-07-20T03:30:58;1.35;;;0.40;;
42018;SDS011;27703;51.980;5.848;2023-07-20T03:33:27;1.50;;;0.50;;
42018;SDS011;27703;51.980;5.848;2023-07-20T03:35:54;1.00;;;0.50;;
42018;SDS011;27703;51.980;5.848;2023-07-20T03:38:20;0.90;;;0.50;;
42018;SDS011;27703;51.980;5.848;2023-07-20T03:40:53;1.55;;;0.60;;
42018;SDS011;27703;51.980;5.848;2023-07-20T03:43:24;1.17;;;0.77;;
42018;SDS011;27703;51.980;5.848;2023-07-20T03:45:51;1.00;;;0.45;;
42018;SDS011;27703;51.980;5.848;2023-07-20T03:48:17;1.00;;;0.47;;
42018;SDS011;27703;51.980;5.848;2023-07-20T03:50:44;1.50;;;0.40;;
42018;SDS011;27703;51.980;5.848;2023-07-20T03:53:10;0.90;;;0.40;;
42018;SDS011;27703;51.980;5.848;2023-07-20T03:55:37;1.08;;;0.40;;
42018;SDS011;27703;51.980;5.848;2023-07-20T03:58:02;1.00;;;0.50;;
42018;SDS011;27703;51.980;5.848;2023-07-20T04:00:28;1.10;;;0.40;;
42018;SDS011;27703;51.980;5.848;2023-07-20T04:02:54;1.65;;;0.60;;
42018;SDS011;27703;51.980;5.848;2023-07-20T04:05:20;1.05;;;0.50;;
42018;SDS011;27703;51.980;5.848;2023-07-20T04:07:45;0.88;;;0.57;;
42018;SDS011;27703;51.980;5.848;2023-07-20T04:10:11;0.75;;;0.40;;
42018;SDS011;27703;51.980;5.848;2023-07-20T04:12:37;1.15;;;0.50;;
42018;SDS011;27703;51.980;5.848;2023-07-20T04:15:03;1.30;;;0.50;;
42018;SDS011;27703;51.980;5.848;2023-07-20T04:17:29;2.08;;;0.50;;
42018;SDS011;27703;51.980;5.848;2023-07-20T04:19:54;0.88;;;0.40;;
42018;SDS011;27703;51.980;5.848;2023-07-20T04:22:20;2.80;;;0.50;;
42018;SDS011;27703;51.980;5.848;2023-07-20T04:24:46;1.90;;;0.40;;
42018;SDS011;27703;51.980;5.848;2023-07-20T04:27:12;1.23;;;0.50;;
42018;SDS011;27703;51.980;5.848;2023-07-20T04:29:37;0.90;;;0.40;;
42018;SDS011;27703;51.980;5.848;2023-07-20T04:32:03;1.10;;;0.50;;
42018;SDS011;27703;51.980;5.848;2023-07-20T04:34:29;0.80;;;0.40;;
42018;SDS011;27703;51.980;5.848;2023-07-20T04:36:54;0.73;;;0.40;;
42018;SDS011;27703;51.980;5.848;2023-07-20T04:39:20;0.85;;;0.43;;
42018;SDS011;27703;51.980;5.848;2023-07-20T04:41:45;1.38;;;0.45;;
42018;SDS011;27703;51.980;5.848;2023-07-20T04:44:12;0.98;;;0.40;;
42018;SDS011;27703;51.980;5.848;2023-07-20T04:46:38;1.08;;;0.45;;
42018;SDS011;27703;51.980;5.848;2023-07-20T04:49:05;1.02;;;0.50;;
42018;SDS011;27703;51.980;5.848;2023-07-20T04:51:31;0.70;;;0.40;;
42018;SDS011;27703;51.980;5.848;2023-07-20T04:53:56;1.20;;;0.40;;
42018;SDS011;27703;51.980;5.848;2023-07-20T04:56:22;0.50;;;0.30;;
42018;SDS011;27703;51.980;5.848;2023-07-20T04:58:49;1.00;;;0.40;;
42018;SDS011;27703;51.980;5.848;2023-07-20T05:01:15;1.98;;;0.40;;
42018;SDS011;27703;51.980;5.848;2023-07-20T05:03:40;0.63;;;0.30;;
42018;SDS011;27703;51.980;5.848;2023-07-20T05:06:06;1.10;;;0.40;;
42018;SDS011;27703;51.980;5.848;2023-07-20T05:08:31;1.38;;;0.45;;
42018;SDS011;27703;51.980;5.848;2023-07-20T05:10:57;0.90;;;0.40;;
42018;SDS011;27703;51.980;5.848;2023-07-20T05:13:24;0.93;;;0.40;;
42018;SDS011;27703;51.980;5.848;2023-07-20T05:15:53;0.98;;;0.50;;
42018;SDS011;27703;51.980;5.848;2023-07-20T05:18:19;0.50;;;0.30;;
42018;SDS011;27703;51.980;5.848;2023-07-20T05:20:48;0.68;;;0.40;;
42018;SDS011;27703;51.980;5.848;2023-07-20T05:23:14;0.77;;;0.38;;
42018;SDS011;27703;51.980;5.848;2023-07-20T05:25:42;1.50;;;0.32;;
42018;SDS011;27703;51.980;5.848;2023-07-20T05:28:08;0.68;;;0.30;;
42018;SDS011;27703;51.980;5.848;2023-07-20T05:30:33;1.05;;;0.40;;
42018;SDS011;27703;51.980;5.848;2023-07-20T05:32:59;1.10;;;0.40;;
42018;SDS011;27703;51.980;5.848;2023-07-20T05:35:25;0.70;;;0.30;;
42018;SDS011;27703;51.980;5.848;2023-07-20T05:37:51;1.08;;;0.50;;
42018;SDS011;27703;51.980;5.848;2023-07-20T05:40:17;0.73;;;0.30;;
42018;SDS011;27703;51.980;5.848;2023-07-20T05:42:44;0.98;;;0.47;;
42018;SDS011;27703;51.980;5.848;2023-07-20T05:45:11;2.65;;;0.60;;
42018;SDS011;27703;51.980;5.848;2023-07-20T05:47:37;1.92;;;0.68;;
42018;SDS011;27703;51.980;5.848;2023-07-20T05:50:02;1.23;;;0.30;;
42018;SDS011;27703;51.980;5.848;2023-07-20T05:52:28;0.50;;;0.30;;
42018;SDS011;27703;51.980;5.848;2023-07-20T05:54:54;0.70;;;0.40;;
42018;SDS011;27703;51.980;5.848;2023-07-20T05:57:20;0.50;;;0.30;;
42018;SDS011;27703;51.980;5.848;2023-07-20T05:59:45;0.50;;;0.30;;
42018;SDS011;27703;51.980;5.848;2023-07-20T06:02:11;0.90;;;0.30;;
42018;SDS011;27703;51.980;5.848;2023-07-20T06:04:37;0.63;;;0.30;;
42018;SDS011;27703;51.980;5.848;2023-07-20T06:07:03;0.65;;;0.30;;
42018;SDS011;27703;51.980;5.848;2023-07-20T06:09:30;0.68;;;0.30;;
42018;SDS011;27703;51.980;5.848;2023-07-20T06:11:55;0.65;;;0.20;;
42018;SDS011;27703;51.980;5.848;2023-07-20T06:14:21;0.57;;;0.28;;
42018;SDS011;27703;51.980;5.848;2023-07-20T06:16:47;1.10;;;0.20;;
42018;SDS011;27703;51.980;5.848;2023-07-20T06:19:12;0.95;;;0.30;;
42018;SDS011;27703;51.980;5.848;2023-07-20T06:21:38;0.88;;;0.30;;
42018;SDS011;27703;51.980;5.848;2023-07-20T06:24:04;0.52;;;0.20;;
42018;SDS011;27703;51.980;5.848;2023-07-20T06:26:30;0.60;;;0.20;;
42018;SDS011;27703;51.980;5.848;2023-07-20T06:28:56;0.35;;;0.20;;
42018;SDS011;27703;51.980;5.848;2023-07-20T06:31:21;0.52;;;0.20;;
42018;SDS011;27703;51.980;5.848;2023-07-20T06:33:47;0.90;;;0.30;;
42018;SDS011;27703;51.980;5.848;2023-07-20T06:36:16;0.60;;;0.20;;
42018;SDS011;27703;51.980;5.848;2023-07-20T06:38:42;0.88;;;0.10;;
42018;SDS011;27703;51.980;5.848;2023-07-20T06:41:08;0.30;;;0.10;;
42018;SDS011;27703;51.980;5.848;2023-07-20T06:43:33;0.40;;;0.10;;
42018;SDS011;27703;51.980;5.848;2023-07-20T06:46:00;0.20;;;0.10;;
42018;SDS011;27703;51.980;5.848;2023-07-20T06:48:25;0.90;;;0.10;;
42018;SDS011;27703;51.980;5.848;2023-07-20T06:50:51;0.43;;;0.10;;
42018;SDS011;27703;51.980;5.848;2023-07-20T06:53:17;0.40;;;0.20;;
42018;SDS011;27703;51.980;5.848;2023-07-20T06:55:42;0.40;;;0.10;;
42018;SDS011;27703;51.980;5.848;2023-07-20T06:58:08;0.40;;;0.05;;
42018;SDS011;27703;51.980;5.848;2023-07-20T07:00:34;0.30;;;0.10;;
42018;SDS011;27703;51.980;5.848;2023-07-20T07:03:00;0.20;;;0.10;;
42018;SDS011;27703;51.980;5.848;2023-07-20T07:05:26;0.35;;;0.10;;
42018;SDS011;27703;51.980;5.848;2023-07-20T07:07:51;0.20;;;0.10;;
42018;SDS011;27703;51.980;5.848;2023-07-20T07:10:17;1.38;;;0.10;;
42018;SDS011;27703;51.980;5.848;2023-07-20T07:12:43;0.55;;;0.10;;
42018;SDS011;27703;51.980;5.848;2023-07-20T07:15:09;0.15;;;0.00;;
42018;SDS011;27703;51.980;5.848;2023-07-20T07:17:35;0.40;;;0.00;;
42018;SDS011;27703;51.980;5.848;2023-07-20T07:20:01;0.65;;;0.00;;
42018;SDS011;27703;51.980;5.848;2023-07-20T07:22:28;0.38;;;0.10;;
42018;SDS011;27703;51.980;5.848;2023-07-20T07:24:55;0.20;;;0.10;;
42018;SDS011;27703;51.980;5.848;2023-07-20T07:27:21;1.80;;;0.10;;
42018;SDS011;27703;51.980;5.848;2023-07-20T07:29:46;0.20;;;0.10;;
42018;SDS011;27703;51.980;5.848;2023-07-20T07:32:13;0.10;;;0.08;;
42018;SDS011;27703;51.980;5.848;2023-07-20T07:34:39;0.22;;;0.05;;
42018;SDS011;27703;51.980;5.848;2023-07-20T07:37:04;0.20;;;0.00;;
42018;SDS011;27703;51.980;5.848;2023-07-20T07:39:30;0.20;;;0.08;;
42018;SDS011;27703;51.980;5.848;2023-07-20T07:41:56;0.20;;;0.10;;
42018;SDS011;27703;51.980;5.848;2023-07-20T07:44:22;0.40;;;0.10;;
42018;SDS011;27703;51.980;5.848;2023-07-20T07:46:48;0.38;;;0.10;;
42018;SDS011;27703;51.980;5.848;2023-07-20T07:49:14;0.00;;;0.00;;
42018;SDS011;27703;51.980;5.848;2023-07-20T07:51:40;0.15;;;0.00;;
42018;SDS011;27703;51.980;5.848;2023-07-20T07:54:06;0.43;;;0.00;;
42018;SDS011;27703;51.980;5.848;2023-07-20T07:56:32;0.20;;;0.00;;
42018;SDS011;27703;51.980;5.848;2023-07-20T07:58:57;0.13;;;0.00;;
42018;SDS011;27703;51.980;5.848;2023-07-20T08:01:23;1.13;;;0.00;;
42018;SDS011;27703;51.980;5.848;2023-07-20T08:03:48;0.20;;;0.00;;
42018;SDS011;27703;51.980;5.848;2023-07-20T08:06:14;0.60;;;0.00;;
42018;SDS011;27703;51.980;5.848;2023-07-20T08:08:40;0.22;;;0.00;;
42018;SDS011;27703;51.980;5.848;2023-07-20T08:11:07;0.10;;;0.00;;
42018;SDS011;27703;51.980;5.848;2023-07-20T08:13:33;0.00;;;0.00;;
42018;SDS011;27703;51.980;5.848;2023-07-20T08:15:58;0.63;;;0.00;;
42018;SDS011;27703;51.980;5.848;2023-07-20T08:18:27;0.60;;;0.10;;
42018;SDS011;27703;51.980;5.848;2023-07-20T08:20:52;0.35;;;0.00;;
42018;SDS011;27703;51.980;5.848;2023-07-20T08:23:19;0.47;;;0.10;;
42018;SDS011;27703;51.980;5.848;2023-07-20T08:25:44;0.20;;;0.00;;
42018;SDS011;27703;51.980;5.848;2023-07-20T08:28:11;0.47;;;0.10;;
42018;SDS011;27703;51.980;5.848;2023-07-20T08:30:41;0.10;;;0.00;;
42018;SDS011;27703;51.980;5.848;2023-07-20T08:33:14;0.17;;;0.00;;
42018;SDS011;27703;51.980;5.848;2023-07-20T08:35:43;0.32;;;0.00;;
42018;SDS011;27703;51.980;5.848;2023-07-20T08:38:09;1.65;;;0.00;;
42018;SDS011;27703;51.980;5.848;2023-07-20T08:40:38;0.13;;;0.00;;
42018;SDS011;27703;51.980;5.848;2023-07-20T08:43:05;1.08;;;0.00;;
42018;SDS011;27703;51.980;5.848;2023-07-20T08:45:34;6.45;;;0.32;;
42018;SDS011;27703;51.980;5.848;2023-07-20T08:48:03;0.08;;;0.00;;
42018;SDS011;27703;51.980;5.848;2023-07-20T08:50:30;0.03;;;0.00;;
42018;SDS011;27703;51.980;5.848;2023-07-20T08:52:58;0.10;;;0.00;;
42018;SDS011;27703;51.980;5.848;2023-07-20T08:55:25;0.32;;;0.00;;
42018;SDS011;27703;51.980;5.848;2023-07-20T08:57:56;0.28;;;0.00;;
42018;SDS011;27703;51.980;5.848;2023-07-20T09:00:23;0.10;;;0.00;;
42018;SDS011;27703;51.980;5.848;2023-07-20T09:02:50;0.10;;;0.00;;
42018;SDS011;27703;51.980;5.848;2023-07-20T09:05:17;0.20;;;0.00;;
42018;SDS011;27703;51.980;5.848;2023-07-20T09:07:44;0.70;;;0.10;;
42018;SDS011;27703;51.980;5.848;2023-07-20T09:10:09;0.30;;;0.10;;
42018;SDS011;27703;51.980;5.848;2023-07-20T09:12:36;0.30;;;0.00;;
42018;SDS011;27703;51.980;5.848;2023-07-20T09:15:06;0.30;;;0.10;;
42018;SDS011;27703;51.980;5.848;2023-07-20T09:17:33;0.35;;;0.10;;
42018;SDS011;27703;51.980;5.848;2023-07-20T09:19:59;1.50;;;0.10;;
42018;SDS011;27703;51.980;5.848;2023-07-20T09:22:30;0.40;;;0.10;;
42018;SDS011;27703;51.980;5.848;2023-07-20T09:24:57;0.30;;;0.00;;
42018;SDS011;27703;51.980;5.848;2023-07-20T09:27:33;0.20;;;0.00;;
42018;SDS011;27703;51.980;5.848;2023-07-20T09:30:06;0.22;;;0.00;;
42018;SDS011;27703;51.980;5.848;2023-07-20T09:32:40;0.85;;;0.10;;
42018;SDS011;27703;51.980;5.848;2023-07-20T09:35:12;0.30;;;0.10;;
42018;SDS011;27703;51.980;5.848;2023-07-20T09:40:19;0.52;;;0.00;;
42018;SDS011;27703;51.980;5.848;2023-07-20T09:42:46;0.32;;;0.10;;
42018;SDS011;27703;51.980;5.848;2023-07-20T09:45:12;0.17;;;0.00;;
42018;SDS011;27703;51.980;5.848;2023-07-20T09:47:38;0.50;;;0.10;;
42018;SDS011;27703;51.980;5.848;2023-07-20T09:50:04;0.30;;;0.10;;
42018;SDS011;27703;51.980;5.848;2023-07-20T09:55:05;0.22;;;0.10;;
42018;SDS011;27703;51.980;5.848;2023-07-20T09:57:33;0.17;;;0.08;;
42018;SDS011;27703;51.980;5.848;2023-07-20T09:59:59;0.30;;;0.10;;
42018;SDS011;27703;51.980;5.848;2023-07-20T10:02:32;0.32;;;0.10;;
42018;SDS011;27703;51.980;5.848;2023-07-20T10:04:58;0.50;;;0.50;;
42018;SDS011;27703;51.980;5.848;2023-07-20T10:07:28;0.50;;;0.08;;
42018;SDS011;27703;51.980;5.848;2023-07-20T10:09:55;0.10;;;0.03;;
42018;SDS011;27703;51.980;5.848;2023-07-20T10:12:24;1.02;;;0.03;;
42018;SDS011;27703;51.980;5.848;2023-07-20T10:14:59;0.63;;;0.10;;
42018;SDS011;27703;51.980;5.848;2023-07-20T10:17:40;1.75;;;0.00;;
42018;SDS011;27703;51.980;5.848;2023-07-20T10:20:36;0.22;;;0.00;;
42018;SDS011;27703;51.980;5.848;2023-07-20T10:23:04;0.32;;;0.10;;
42018;SDS011;27703;51.980;5.848;2023-07-20T10:25:31;0.60;;;0.03;;
42018;SDS011;27703;51.980;5.848;2023-07-20T10:27:57;0.22;;;0.08;;
42018;SDS011;27703;51.980;5.848;2023-07-20T10:30:24;0.57;;;0.10;;
42018;SDS011;27703;51.980;5.848;2023-07-20T10:32:51;0.20;;;0.10;;
42018;SDS011;27703;51.980;5.848;2023-07-20T10:35:18;0.28;;;0.10;;
42018;SDS011;27703;51.980;5.848;2023-07-20T10:40:32;0.30;;;0.10;;
42018;SDS011;27703;51.980;5.848;2023-07-20T10:43:04;0.47;;;0.10;;
42018;SDS011;27703;51.980;5.848;2023-07-20T10:45:42;3.10;;;0.10;;
42018;SDS011;27703;51.980;5.848;2023-07-20T10:48:17;0.50;;;0.10;;
42018;SDS011;27703;51.980;5.848;2023-07-20T10:50:44;0.82;;;0.10;;
42018;SDS011;27703;51.980;5.848;2023-07-20T10:53:11;0.08;;;0.00;;
42018;SDS011;27703;51.980;5.848;2023-07-20T10:55:38;0.30;;;0.10;;
42018;SDS011;27703;51.980;5.848;2023-07-20T10:58:08;0.22;;;0.10;;
42018;SDS011;27703;51.980;5.848;2023-07-20T11:01:13;0.47;;;0.10;;
42018;SDS011;27703;51.980;5.848;2023-07-20T11:03:33;0.20;;;0.10;;
42018;SDS011;27703;51.980;5.848;2023-07-20T11:06:29;0.63;;;0.10;;
42018;SDS011;27703;51.980;5.848;2023-07-20T11:08:48;1.30;;;0.10;;
42018;SDS011;27703;51.980;5.848;2023-07-20T11:11:26;0.47;;;0.17;;
42018;SDS011;27703;51.980;5.848;2023-07-20T11:13:55;0.40;;;0.10;;
42018;SDS011;27703;51.980;5.848;2023-07-20T11:16:40;0.65;;;0.00;;
42018;SDS011;27703;51.980;5.848;2023-07-20T11:19:18;0.13;;;0.10;;
42018;SDS011;27703;51.980;5.848;2023-07-20T11:21:54;0.30;;;0.10;;
42018;SDS011;27703;51.980;5.848;2023-07-20T11:24:21;0.10;;;0.00;;
42018;SDS011;27703;51.980;5.848;2023-07-20T11:26:56;0.95;;;0.00;;
42018;SDS011;27703;51.980;5.848;2023-07-20T11:29:23;0.10;;;0.00;;
42018;SDS011;27703;51.980;5.848;2023-07-20T11:31:50;0.68;;;0.00;;
42018;SDS011;27703;51.980;5.848;2023-07-20T11:34:19;0.10;;;0.00;;
42018;SDS011;27703;51.980;5.848;2023-07-20T11:36:50;0.40;;;0.10;;
42018;SDS011;27703;51.980;5.848;2023-07-20T11:39:17;0.43;;;0.00;;
42018;SDS011;27703;51.980;5.848;2023-07-20T11:41:50;0.93;;;0.10;;
42018;SDS011;27703;51.980;5.848;2023-07-20T11:44:17;0.63;;;0.10;;
42018;SDS011;27703;51.980;5.848;2023-07-20T11:46:44;0.77;;;0.00;;
42018;SDS011;27703;51.980;5.848;2023-07-20T11:49:10;0.32;;;0.10;;
42018;SDS011;27703;51.980;5.848;2023-07-20T11:51:36;0.80;;;0.05;;
42018;SDS011;27703;51.980;5.848;2023-07-20T11:54:05;0.55;;;0.08;;
42018;SDS011;27703;51.980;5.848;2023-07-20T11:56:33;0.22;;;0.00;;
42018;SDS011;27703;51.980;5.848;2023-07-20T11:58:58;0.20;;;0.00;;
42018;SDS011;27703;51.980;5.848;2023-07-20T12:01:26;0.22;;;0.00;;
42018;SDS011;27703;51.980;5.848;2023-07-20T12:04:00;0.30;;;0.00;;
42018;SDS011;27703;51.980;5.848;2023-07-20T12:06:27;0.22;;;0.00;;
42018;SDS011;27703;51.980;5.848;2023-07-20T12:08:56;0.40;;;0.08;;
42018;SDS011;27703;51.980;5.848;2023-07-20T12:11:36;0.20;;;0.00;;
42018;SDS011;27703;51.980;5.848;2023-07-20T12:14:03;0.05;;;0.00;;
42018;SDS011;27703;51.980;5.848;2023-07-20T12:16:31;0.22;;;0.00;;
42018;SDS011;27703;51.980;5.848;2023-07-20T12:19:07;0.30;;;0.00;;
42018;SDS011;27703;51.980;5.848;2023-07-20T12:21:34;0.10;;;0.00;;
42018;SDS011;27703;51.980;5.848;2023-07-20T12:24:01;1.08;;;0.10;;
42018;SDS011;27703;51.980;5.848;2023-07-20T12:26:29;2.05;;;0.00;;
42018;SDS011;27703;51.980;5.848;2023-07-20T12:28:55;0.10;;;0.00;;
42018;SDS011;27703;51.980;5.848;2023-07-20T12:31:21;0.95;;;0.08;;
42018;SDS011;27703;51.980;5.848;2023-07-20T12:33:48;0.20;;;0.10;;
42018;SDS011;27703;51.980;5.848;2023-07-20T12:36:14;0.10;;;0.00;;
42018;SDS011;27703;51.980;5.848;2023-07-20T12:38:40;0.73;;;0.03;;
42018;SDS011;27703;51.980;5.848;2023-07-20T12:41:07;0.00;;;0.00;;
42018;SDS011;27703;51.980;5.848;2023-07-20T12:43:34;0.60;;;0.00;;
42018;SDS011;27703;51.980;5.848;2023-07-20T12:46:00;0.75;;;0.00;;
42018;SDS011;27703;51.980;5.848;2023-07-20T12:48:25;0.88;;;0.00;;
42018;SDS011;27703;51.980;5.848;2023-07-20T12:50:51;0.20;;;0.00;;
42018;SDS011;27703;51.980;5.848;2023-07-20T12:53:18;0.40;;;0.00;;
42018;SDS011;27703;51.980;5.848;2023-07-20T12:55:43;5.57;;;0.65;;
42018;SDS011;27703;51.980;5.848;2023-07-20T12:58:09;2.20;;;0.10;;
42018;SDS011;27703;51.980;5.848;2023-07-20T13:00:36;0.10;;;0.00;;
42018;SDS011;27703;51.980;5.848;2023-07-20T13:03:02;2.22;;;0.10;;
42018;SDS011;27703;51.980;5.848;2023-07-20T13:05:32;0.20;;;0.00;;
42018;SDS011;27703;51.980;5.848;2023-07-20T13:07:58;0.40;;;0.03;;
42018;SDS011;27703;51.980;5.848;2023-07-20T13:10:23;1.02;;;0.00;;
42018;SDS011;27703;51.980;5.848;2023-07-20T13:12:49;0.20;;;0.00;;
42018;SDS011;27703;51.980;5.848;2023-07-20T13:15:15;0.40;;;0.00;;
42018;SDS011;27703;51.980;5.848;2023-07-20T13:17:42;0.17;;;0.00;;
42018;SDS011;27703;51.980;5.848;2023-07-20T13:20:08;0.22;;;0.00;;
42018;SDS011;27703;51.980;5.848;2023-07-20T13:22:35;0.10;;;0.00;;
42018;SDS011;27703;51.980;5.848;2023-07-20T13:25:01;0.10;;;0.00;;
42018;SDS011;27703;51.980;5.848;2023-07-20T13:27:27;0.10;;;0.00;;
42018;SDS011;27703;51.980;5.848;2023-07-20T13:29:53;0.03;;;0.00;;
42018;SDS011;27703;51.980;5.848;2023-07-20T13:32:19;0.05;;;0.00;;
42018;SDS011;27703;51.980;5.848;2023-07-20T13:34:45;0.35;;;0.00;;
42018;SDS011;27703;51.980;5.848;2023-07-20T13:37:11;0.10;;;0.00;;
42018;SDS011;27703;51.980;5.848;2023-07-20T13:39:37;0.57;;;0.10;;
42018;SDS011;27703;51.980;5.848;2023-07-20T13:42:03;0.30;;;0.00;;
42018;SDS011;27703;51.980;5.848;2023-07-20T13:44:30;0.20;;;0.00;;
42018;SDS011;27703;51.980;5.848;2023-07-20T13:46:56;0.80;;;0.03;;
42018;SDS011;27703;51.980;5.848;2023-07-20T13:49:22;0.32;;;0.00;;
42018;SDS011;27703;51.980;5.848;2023-07-20T13:51:48;0.20;;;0.00;;
42018;SDS011;27703;51.980;5.848;2023-07-20T13:54:13;0.00;;;0.00;;
42018;SDS011;27703;51.980;5.848;2023-07-20T13:56:39;0.22;;;0.10;;
42018;SDS011;27703;51.980;5.848;2023-07-20T13:59:05;0.13;;;0.00;;
42018;SDS011;27703;51.980;5.848;2023-07-20T14:01:30;0.32;;;0.00;;
42018;SDS011;27703;51.980;5.848;2023-07-20T14:03:59;0.45;;;0.00;;
42018;SDS011;27703;51.980;5.848;2023-07-20T14:06:25;0.20;;;0.00;;
42018;SDS011;27703;51.980;5.848;2023-07-20T14:08:51;0.10;;;0.00;;
42018;SDS011;27703;51.980;5.848;2023-07-20T14:11:18;0.75;;;0.10;;
42018;SDS011;27703;51.980;5.848;2023-07-20T14:13:43;0.30;;;0.00;;
42018;SDS011;27703;51.980;5.848;2023-07-20T14:16:09;0.10;;;0.00;;
42018;SDS011;27703;51.980;5.848;2023-07-20T14:18:35;0.10;;;0.00;;
42018;SDS011;27703;51.980;5.848;2023-07-20T14:21:01;0.22;;;0.00;;
42018;SDS011;27703;51.980;5.848;2023-07-20T14:23:28;0.10;;;0.00;;
42018;SDS011;27703;51.980;5.848;2023-07-20T14:25:53;0.30;;;0.00;;
42018;SDS011;27703;51.980;5.848;2023-07-20T14:28:19;0.17;;;0.05;;
42018;SDS011;27703;51.980;5.848;2023-07-20T14:30:45;0.20;;;0.00;;
42018;SDS011;27703;51.980;5.848;2023-07-20T14:33:11;0.20;;;0.00;;
42018;SDS011;27703;51.980;5.848;2023-07-20T14:35:36;0.20;;;0.03;;
42018;SDS011;27703;51.980;5.848;2023-07-20T14:38:02;0.10;;;0.00;;
42018;SDS011;27703;51.980;5.848;2023-07-20T14:40:28;2.15;;;0.00;;
42018;SDS011;27703;51.980;5.848;2023-07-20T14:42:54;0.20;;;0.00;;
42018;SDS011;27703;51.980;5.848;2023-07-20T14:45:20;0.40;;;0.00;;
42018;SDS011;27703;51.980;5.848;2023-07-20T14:47:46;0.10;;;0.00;;
42018;SDS011;27703;51.980;5.848;2023-07-20T14:50:14;0.08;;;0.00;;
42018;SDS011;27703;51.980;5.848;2023-07-20T14:52:39;0.28;;;0.03;;
42018;SDS011;27703;51.980;5.848;2023-07-20T14:55:05;0.10;;;0.00;;
42018;SDS011;27703;51.980;5.848;2023-07-20T14:57:31;0.10;;;0.00;;
42018;SDS011;27703;51.980;5.848;2023-07-20T14:59:56;0.22;;;0.03;;
42018;SDS011;27703;51.980;5.848;2023-07-20T15:02:22;0.22;;;0.00;;
42018;SDS011;27703;51.980;5.848;2023-07-20T15:04:51;0.15;;;0.00;;
42018;SDS011;27703;51.980;5.848;2023-07-20T15:07:18;1.10;;;0.00;;